createdAt,value
2017-11-03T00:01:05.796Z,19.02
2017-11-03T00:03:34.025Z,23.65
2017-11-03T00:06:01.506Z,23.83
2017-11-03T00:08:28.982Z,14.38
2017-11-03T00:10:57.218Z,17.65
2017-11-03T00:13:24.702Z,23.70
2017-11-03T00:15:52.167Z,25.33
2017-11-03T00:18:19.718Z,20.83
2017-11-03T00:20:47.279Z,22.35
2017-11-03T00:23:14.754Z,21.23
2017-11-03T00:25:42.997Z,21.77
2017-11-03T00:28:10.575Z,24.08
2017-11-03T00:30:38.842Z,20.55
2017-11-03T00:33:06.406Z,20.88
2017-11-03T00:35:33.866Z,25.55
2017-11-03T00:38:02.102Z,24.87
2017-11-03T00:40:29.589Z,25.15
2017-11-03T00:42:57.146Z,21.37
2017-11-03T00:45:24.605Z,30.95
2017-11-03T00:47:52.167Z,23.33
2017-11-03T00:50:19.717Z,28.42
2017-11-03T00:52:47.273Z,36.47
2017-11-03T00:55:14.733Z,19.00
2017-11-03T00:57:42.293Z,19.45
2017-11-03T01:00:09.758Z,19.12
2017-11-03T01:02:37.365Z,14.25
2017-11-03T01:05:04.925Z,15.75
2017-11-03T01:07:32.424Z,24.60
2017-11-03T01:09:59.955Z,13.60
2017-11-03T01:12:27.433Z,20.92
2017-11-03T01:14:54.901Z,13.07
2017-11-03T01:17:22.459Z,14.35
2017-11-03T01:19:49.933Z,11.70
2017-11-03T01:22:18.161Z,14.98
2017-11-03T01:24:45.646Z,17.65
2017-11-03T01:27:13.264Z,13.52
2017-11-03T01:29:40.751Z,11.07
2017-11-03T01:32:08.235Z,15.77
2017-11-03T01:34:36.456Z,15.88
2017-11-03T01:37:03.954Z,16.65
2017-11-03T01:39:31.409Z,11.57
2017-11-03T01:41:58.877Z,16.42
2017-11-03T01:44:26.426Z,16.35
2017-11-03T01:46:53.911Z,18.35
2017-11-03T01:49:22.157Z,17.65
2017-11-03T01:51:49.716Z,17.15
2017-11-03T01:54:17.173Z,18.33
2017-11-03T01:56:44.656Z,19.62
2017-11-03T01:59:12.907Z,18.45
2017-11-03T02:01:40.457Z,18.45
2017-11-03T02:04:08.079Z,25.27
2017-11-03T02:06:35.583Z,24.87
2017-11-03T02:09:03.040Z,17.90
2017-11-03T02:11:30.506Z,20.48
2017-11-03T02:13:58.745Z,25.92
2017-11-03T02:16:26.219Z,21.45
2017-11-03T02:18:53.690Z,25.50
2017-11-03T02:21:21.885Z,23.15
2017-11-03T02:23:50.139Z,30.92
2017-11-03T02:26:17.692Z,21.45
2017-11-03T02:28:45.152Z,25.05
2017-11-03T02:31:12.630Z,28.92
2017-11-03T02:33:40.119Z,23.48
2017-11-03T02:36:07.622Z,24.60
2017-11-03T02:38:35.949Z,30.70
2017-11-03T02:41:03.429Z,25.08
2017-11-03T02:43:31.000Z,23.92
2017-11-03T02:45:58.477Z,26.45
2017-11-03T02:48:25.948Z,29.85
2017-11-03T02:50:54.204Z,24.65
2017-11-03T02:53:21.670Z,28.20
2017-11-03T02:55:50.815Z,29.33
2017-11-03T02:58:18.288Z,31.08
2017-11-03T03:00:45.884Z,33.67
2017-11-03T03:03:14.121Z,23.77
2017-11-03T03:05:41.698Z,22.92
2017-11-03T03:08:09.272Z,21.67
2017-11-03T03:10:37.522Z,29.33
2017-11-03T03:13:05.002Z,28.15
2017-11-03T03:15:32.561Z,21.50
2017-11-03T03:18:00.030Z,22.70
2017-11-03T03:20:28.300Z,20.80
2017-11-03T03:22:56.541Z,25.55
2017-11-03T03:25:24.033Z,19.85
2017-11-03T03:27:52.294Z,24.77
2017-11-03T03:30:19.844Z,21.05
2017-11-03T03:32:47.362Z,19.33
2017-11-03T03:35:14.838Z,19.58
2017-11-03T03:37:42.309Z,19.48
2017-11-03T03:40:09.781Z,18.30
2017-11-03T03:42:37.248Z,25.98
2017-11-03T03:45:05.486Z,16.02
2017-11-03T03:47:32.975Z,27.73
2017-11-03T03:50:00.432Z,17.60
2017-11-03T03:52:28.709Z,17.27
2017-11-03T03:54:56.169Z,19.87
2017-11-03T03:57:24.441Z,19.65
2017-11-03T03:59:51.902Z,17.70
2017-11-03T04:02:20.136Z,19.85
2017-11-03T04:04:47.625Z,21.48
2017-11-03T04:07:15.293Z,24.63
2017-11-03T04:09:42.752Z,21.55
2017-11-03T04:12:10.997Z,22.52
2017-11-03T04:14:38.477Z,22.95
2017-11-03T04:17:06.037Z,25.90
2017-11-03T04:19:33.643Z,20.95
2017-11-03T04:22:01.122Z,17.77
2017-11-03T04:24:28.907Z,19.95
2017-11-03T04:26:56.382Z,24.65
2017-11-03T04:29:24.656Z,23.73
2017-11-03T04:31:52.218Z,26.27
2017-11-03T04:34:20.489Z,31.98
2017-11-03T04:36:48.762Z,30.08
2017-11-03T04:39:16.220Z,31.73
2017-11-03T04:41:43.685Z,25.52
2017-11-03T04:44:11.942Z,28.52
2017-11-03T04:46:39.411Z,24.65
2017-11-03T04:49:06.879Z,28.05
2017-11-03T04:51:35.112Z,28.87
2017-11-03T04:54:02.576Z,27.50
2017-11-03T04:56:30.054Z,24.83
2017-11-03T04:58:57.528Z,24.92
2017-11-03T05:01:25.767Z,22.20
2017-11-03T05:03:53.239Z,28.27
2017-11-03T05:06:20.790Z,28.38
2017-11-03T05:08:48.256Z,28.27
2017-11-03T05:11:15.801Z,22.92
2017-11-03T05:13:43.372Z,22.55
2017-11-03T05:16:10.934Z,25.17
2017-11-03T05:18:38.388Z,24.35
2017-11-03T05:21:06.660Z,22.55
2017-11-03T05:23:34.224Z,23.73
2017-11-03T05:26:01.685Z,23.75
2017-11-03T05:28:29.945Z,27.17
2017-11-03T05:30:57.413Z,24.60
2017-11-03T05:33:24.972Z,21.35
2017-11-03T05:35:52.437Z,21.45
2017-11-03T05:38:20.705Z,22.65
2017-11-03T05:40:48.990Z,24.75
2017-11-03T05:43:17.251Z,23.40
2017-11-03T05:45:44.712Z,24.42
2017-11-03T05:48:12.991Z,30.83
2017-11-03T05:50:40.545Z,24.63
2017-11-03T05:53:08.008Z,29.77
2017-11-03T05:55:36.234Z,25.37
2017-11-03T05:58:03.709Z,23.95
2017-11-03T06:00:31.190Z,25.42
2017-11-03T06:02:58.656Z,23.67
2017-11-03T06:05:26.911Z,25.50
2017-11-03T06:07:55.894Z,17.73
2017-11-03T06:10:23.374Z,28.67
2017-11-03T06:12:51.618Z,23.00
2017-11-03T06:15:19.080Z,23.90
2017-11-03T06:17:46.541Z,20.48
2017-11-03T06:20:15.304Z,23.17
2017-11-03T06:22:42.786Z,25.95
2017-11-03T06:25:10.267Z,20.15
2017-11-03T06:27:38.493Z,28.45
2017-11-03T06:30:06.046Z,32.47
2017-11-03T06:32:33.519Z,28.70
2017-11-03T06:35:00.988Z,30.12
2017-11-03T06:37:28.448Z,27.60
2017-11-03T06:39:56.050Z,26.33
2017-11-03T06:42:24.302Z,26.40
2017-11-03T06:44:51.862Z,25.65
2017-11-03T06:47:19.317Z,30.35
2017-11-03T06:49:47.594Z,34.92
2017-11-03T06:52:15.141Z,23.65
2017-11-03T06:54:42.606Z,32.75
2017-11-03T06:57:10.844Z,27.25
2017-11-03T06:59:38.341Z,28.48
2017-11-03T07:02:05.810Z,25.02
2017-11-03T07:04:34.121Z,28.67
2017-11-03T07:07:01.585Z,24.77
2017-11-03T07:09:29.077Z,28.92
2017-11-03T07:11:56.546Z,29.35
2017-11-03T07:14:24.779Z,27.87
2017-11-03T07:16:52.283Z,27.67
2017-11-03T07:19:20.570Z,28.85
2017-11-03T07:21:48.813Z,24.75
2017-11-03T07:24:16.285Z,27.83
2017-11-03T07:26:43.756Z,27.90
2017-11-03T07:29:12.036Z,24.65
2017-11-03T07:31:40.268Z,25.90
2017-11-03T07:34:07.750Z,24.40
2017-11-03T07:36:36.026Z,23.45
2017-11-03T07:39:04.281Z,22.52
2017-11-03T07:41:31.746Z,21.48
2017-11-03T07:43:59.223Z,20.95
2017-11-03T07:46:27.468Z,22.60
2017-11-03T07:48:55.038Z,30.12
2017-11-03T07:51:22.507Z,22.42
2017-11-03T07:53:50.771Z,19.77
2017-11-03T07:56:18.352Z,25.10
2017-11-03T07:58:46.592Z,24.42
2017-11-03T08:01:14.060Z,29.45
2017-11-03T08:03:41.634Z,29.80
2017-11-03T08:06:09.879Z,21.67
2017-11-03T08:08:37.612Z,34.22
2017-11-03T08:11:05.230Z,21.65
2017-11-03T08:13:33.490Z,25.75
2017-11-03T08:16:01.403Z,24.20
2017-11-03T08:18:29.288Z,20.65
2017-11-03T08:20:57.672Z,23.62
2017-11-03T08:23:25.142Z,27.17
2017-11-03T08:25:52.611Z,26.33
2017-11-03T08:28:20.079Z,21.15
2017-11-03T08:30:47.649Z,19.90
2017-11-03T08:33:15.892Z,22.48
2017-11-03T08:35:43.386Z,18.33
2017-11-03T08:38:11.629Z,26.52
2017-11-03T08:40:39.214Z,20.98
2017-11-03T08:43:07.441Z,20.98
2017-11-03T08:45:34.990Z,23.02
2017-11-03T08:48:02.474Z,29.05
2017-11-03T08:50:29.963Z,21.37
2017-11-03T08:52:58.191Z,21.00
2017-11-03T08:55:25.673Z,23.27
2017-11-03T08:57:53.165Z,25.73
2017-11-03T09:00:21.409Z,22.83
2017-11-03T09:02:48.877Z,25.58
2017-11-03T09:05:17.119Z,22.62
2017-11-03T09:07:44.589Z,22.80
2017-11-03T09:10:12.077Z,22.77
2017-11-03T09:12:39.552Z,24.35
2017-11-03T09:15:07.070Z,22.75
2017-11-03T09:17:34.611Z,17.27
2017-11-03T09:20:03.384Z,18.73
2017-11-03T09:22:32.256Z,16.45
2017-11-03T09:25:00.533Z,17.35
2017-11-03T09:27:28.730Z,18.92
2017-11-03T09:29:56.702Z,11.95
2017-11-03T09:32:25.052Z,17.80
2017-11-03T09:34:53.046Z,17.33
2017-11-03T09:37:21.619Z,17.12
2017-11-03T09:39:49.924Z,23.50
2017-11-03T09:42:17.417Z,14.80
2017-11-03T09:44:44.941Z,8.43
2017-11-03T09:47:12.421Z,13.53
2017-11-03T09:49:40.665Z,15.33
2017-11-03T09:52:08.131Z,14.13
2017-11-03T09:54:35.618Z,12.67
2017-11-03T09:57:03.074Z,11.80
2017-11-03T09:59:30.547Z,11.60
2017-11-03T10:01:58.005Z,10.10
2017-11-03T10:04:25.509Z,14.63
2017-11-03T10:06:53.080Z,13.40
2017-11-03T10:09:20.553Z,15.70
2017-11-03T10:11:51.186Z,13.03
2017-11-03T10:14:19.429Z,7.90
2017-11-03T10:16:46.917Z,14.67
2017-11-03T10:19:15.169Z,9.70
2017-11-03T10:21:42.734Z,10.73
2017-11-03T10:24:10.264Z,9.67
2017-11-03T10:26:37.749Z,9.30
2017-11-03T10:29:05.990Z,9.70
2017-11-03T10:31:33.482Z,10.13
2017-11-03T10:34:01.805Z,6.97
2017-11-03T10:36:29.306Z,8.17
2017-11-03T10:38:56.866Z,15.30
2017-11-03T10:41:24.341Z,10.70
2017-11-03T10:43:52.603Z,9.43
2017-11-03T10:46:20.078Z,13.57
2017-11-03T10:48:48.304Z,11.20
2017-11-03T10:51:15.889Z,13.70
2017-11-03T10:53:43.360Z,8.93
2017-11-03T10:56:11.601Z,12.30
2017-11-03T10:58:39.077Z,14.13
2017-11-03T11:01:06.584Z,10.23
2017-11-03T11:03:34.052Z,5.17
2017-11-03T11:06:01.549Z,9.83
2017-11-03T11:08:29.040Z,8.17
2017-11-03T11:10:56.508Z,9.27
2017-11-03T11:13:23.957Z,7.53
2017-11-03T11:15:51.499Z,7.47
2017-11-03T11:18:19.740Z,13.73
2017-11-03T11:20:47.675Z,11.00
2017-11-03T11:23:15.182Z,7.23
2017-11-03T11:25:43.104Z,3.67
2017-11-03T11:28:10.616Z,5.90
2017-11-03T11:30:38.861Z,9.57
2017-11-03T11:33:06.331Z,5.03
2017-11-03T11:35:33.794Z,8.83
2017-11-03T11:38:02.068Z,13.33
2017-11-03T11:40:29.529Z,10.70
2017-11-03T11:42:57.011Z,6.97
2017-11-03T11:45:25.261Z,4.03
2017-11-03T11:47:52.736Z,5.90
2017-11-03T11:50:20.993Z,10.83
2017-11-03T11:52:48.535Z,5.47
2017-11-03T11:55:16.016Z,9.33
2017-11-03T11:57:44.241Z,7.10
2017-11-03T12:00:11.808Z,8.67
2017-11-03T12:02:39.276Z,7.90
2017-11-03T12:05:06.857Z,7.70
2017-11-03T12:07:35.088Z,8.93
2017-11-03T12:10:02.602Z,8.73
2017-11-03T12:12:30.888Z,8.13
2017-11-03T12:14:59.127Z,7.10
2017-11-03T12:17:26.708Z,15.63
2017-11-03T12:19:54.953Z,12.97
2017-11-03T12:22:22.435Z,11.13
2017-11-03T12:24:49.924Z,9.30
2017-11-03T12:27:17.446Z,8.73
2017-11-03T12:29:45.011Z,11.73
2017-11-03T12:32:12.495Z,10.63
2017-11-03T12:34:39.964Z,8.80
2017-11-03T12:37:07.431Z,7.70
2017-11-03T12:39:35.086Z,8.00
2017-11-03T12:42:02.593Z,6.80
2017-11-03T12:44:30.085Z,12.53
2017-11-03T12:46:57.580Z,14.00
2017-11-03T12:49:25.048Z,10.20
2017-11-03T12:51:52.529Z,8.00
2017-11-03T12:54:19.998Z,9.93
2017-11-03T12:56:48.237Z,10.60
2017-11-03T12:59:15.771Z,12.70
2017-11-03T13:01:43.397Z,8.80
2017-11-03T13:04:11.721Z,5.60
2017-11-03T13:06:39.267Z,8.80
2017-11-03T13:09:06.773Z,11.50
2017-11-03T13:11:34.237Z,9.97
2017-11-03T13:14:02.476Z,12.80
2017-11-03T13:16:29.954Z,16.80
2017-11-03T13:18:57.504Z,10.60
2017-11-03T13:21:24.969Z,6.50
2017-11-03T13:23:52.891Z,9.73
2017-11-03T13:28:53.008Z,8.80
2017-11-03T13:31:20.536Z,8.70
2017-11-03T13:33:49.272Z,8.87
2017-11-03T13:36:17.932Z,7.27
2017-11-03T13:38:45.497Z,9.23
2017-11-03T13:41:13.129Z,18.77
2017-11-03T13:43:40.713Z,6.50
2017-11-03T13:46:08.254Z,6.67
2017-11-03T13:48:36.653Z,7.17
2017-11-03T13:51:04.197Z,6.27
2017-11-03T13:53:32.532Z,6.33
2017-11-03T13:56:00.134Z,6.70
2017-11-03T13:58:28.399Z,8.70
2017-11-03T14:00:56.786Z,6.97
2017-11-03T14:03:25.128Z,9.53
2017-11-03T14:05:52.737Z,13.40
2017-11-03T14:08:20.304Z,6.13
2017-11-03T14:10:47.931Z,4.67
2017-11-03T14:13:16.306Z,11.90
2017-11-03T14:15:43.962Z,9.47
2017-11-03T14:18:11.501Z,9.60
2017-11-03T14:20:39.173Z,10.07
2017-11-03T14:23:06.850Z,12.00
2017-11-03T14:25:35.205Z,8.03
2017-11-03T14:28:02.746Z,7.80
2017-11-03T14:30:30.289Z,11.27
2017-11-03T14:32:57.875Z,14.27
2017-11-03T14:35:25.492Z,11.27
2017-11-03T14:37:53.080Z,7.23
2017-11-03T14:40:20.638Z,15.60
2017-11-03T14:42:48.116Z,16.37
2017-11-03T14:45:15.589Z,10.17
2017-11-03T14:47:43.052Z,11.83
2017-11-03T14:50:10.609Z,9.87
2017-11-03T14:52:38.932Z,15.40
2017-11-03T14:55:06.393Z,15.27
2017-11-03T14:57:33.899Z,11.53
2017-11-03T15:00:01.349Z,6.03
2017-11-03T15:02:28.910Z,16.20
2017-11-03T15:04:56.374Z,9.20
2017-11-03T15:07:24.596Z,7.17
2017-11-03T15:09:52.081Z,10.00
2017-11-03T15:12:19.562Z,12.27
2017-11-03T15:14:47.015Z,10.17
2017-11-03T15:17:15.273Z,10.30
2017-11-03T15:19:42.754Z,16.80
2017-11-03T15:22:13.389Z,8.77
2017-11-03T15:24:41.614Z,7.60
2017-11-03T15:27:09.095Z,7.43
2017-11-03T15:29:36.576Z,12.50
2017-11-03T15:32:04.872Z,10.10
2017-11-03T15:34:32.333Z,8.00
2017-11-03T15:36:59.800Z,8.87
2017-11-03T15:39:27.298Z,8.77
2017-11-03T15:41:54.768Z,9.37
2017-11-03T15:44:22.327Z,7.60
2017-11-03T15:46:49.809Z,12.97
2017-11-03T15:49:18.588Z,10.40
2017-11-03T15:51:46.967Z,16.77
2017-11-03T15:54:15.224Z,7.28
2017-11-03T15:56:42.688Z,9.15
2017-11-03T15:59:14.931Z,14.45
2017-11-03T16:01:42.431Z,15.18
2017-11-03T16:04:09.972Z,11.07
2017-11-03T16:06:38.220Z,13.30
2017-11-03T16:09:06.506Z,10.55
2017-11-03T16:11:38.458Z,12.23
2017-11-03T16:14:05.926Z,22.35
2017-11-03T16:16:33.405Z,12.35
2017-11-03T16:19:01.653Z,17.12
2017-11-03T16:21:36.855Z,12.30
2017-11-03T16:24:04.354Z,10.13
2017-11-03T16:26:31.830Z,10.05
2017-11-03T16:29:00.079Z,11.20
2017-11-03T16:31:27.593Z,13.30
2017-11-03T16:33:55.104Z,12.82
2017-11-03T16:36:22.652Z,18.05
2017-11-03T16:38:50.236Z,14.82
2017-11-03T16:41:18.496Z,14.98
2017-11-03T16:43:47.488Z,13.30
2017-11-03T16:46:14.970Z,13.13
2017-11-03T16:48:43.215Z,15.55
2017-11-03T16:51:10.772Z,10.18
2017-11-03T16:53:38.257Z,12.77
2017-11-03T16:56:06.500Z,11.95
2017-11-03T16:58:33.981Z,14.02
2017-11-03T17:01:01.445Z,13.80
2017-11-03T17:03:29.677Z,9.68
2017-11-03T17:05:57.155Z,13.15
2017-11-03T17:08:24.719Z,13.48
2017-11-03T17:10:52.216Z,12.45
2017-11-03T17:13:20.341Z,16.73
2017-11-03T17:15:47.804Z,16.17
2017-11-03T17:18:15.268Z,10.68
2017-11-03T17:20:42.780Z,7.90
2017-11-03T17:23:10.294Z,15.15
2017-11-03T17:25:37.777Z,21.98
2017-11-03T17:28:05.313Z,16.65
2017-11-03T17:30:33.541Z,14.55
2017-11-03T17:33:01.028Z,17.25
2017-11-03T17:35:28.503Z,14.38
2017-11-03T17:37:56.724Z,19.30
2017-11-03T17:40:24.181Z,9.60
2017-11-03T17:42:51.636Z,12.32
2017-11-03T17:45:19.113Z,12.80
2017-11-03T17:47:46.581Z,12.18
2017-11-03T17:50:15.565Z,15.20
2017-11-03T17:52:43.037Z,14.57
2017-11-03T17:55:10.514Z,21.87
2017-11-03T17:57:38.737Z,18.70
2017-11-03T18:00:06.212Z,14.75
2017-11-03T18:02:35.176Z,17.75
2017-11-03T18:05:02.632Z,14.87
2017-11-03T18:07:30.099Z,16.90
2017-11-03T18:09:57.549Z,16.25
2017-11-03T18:12:25.001Z,22.60
2017-11-03T18:14:52.461Z,23.00
2017-11-03T18:17:19.944Z,25.75
2017-11-03T18:19:47.442Z,21.60
2017-11-03T18:22:14.909Z,18.87
2017-11-03T18:24:42.369Z,16.25
2017-11-03T18:27:09.945Z,32.33
2017-11-03T18:29:37.398Z,18.55
2017-11-03T18:32:04.848Z,23.62
2017-11-03T18:34:32.343Z,18.75
2017-11-03T18:36:59.814Z,16.83
2017-11-03T18:39:27.377Z,20.75
2017-11-03T18:41:55.618Z,21.08
2017-11-03T18:44:23.103Z,17.80
2017-11-03T18:46:50.573Z,22.87
2017-11-03T18:49:18.818Z,21.17
2017-11-03T18:51:46.293Z,20.00
2017-11-03T18:54:13.866Z,22.00
2017-11-03T18:56:42.095Z,17.10
2017-11-03T18:59:09.881Z,25.12
2017-11-03T19:01:37.340Z,19.52
2017-11-03T19:04:04.830Z,20.42
2017-11-03T19:06:32.374Z,21.92
2017-11-03T19:09:00.626Z,18.80
2017-11-03T19:11:28.102Z,20.95
2017-11-03T19:13:56.391Z,21.80
2017-11-03T19:16:24.638Z,31.58
2017-11-03T19:18:52.113Z,20.15
2017-11-03T19:21:20.349Z,23.85
2017-11-03T19:23:47.831Z,26.25
2017-11-03T19:26:15.291Z,27.55
2017-11-03T19:28:42.796Z,21.58
2017-11-03T19:31:10.307Z,24.02
2017-11-03T19:33:37.814Z,20.20
2017-11-03T19:36:05.321Z,26.75
2017-11-03T19:38:32.785Z,23.65
2017-11-03T19:41:01.067Z,23.73
2017-11-03T19:43:29.325Z,24.65
2017-11-03T19:45:56.785Z,23.10
2017-11-03T19:48:24.257Z,21.05
2017-11-03T19:50:52.543Z,29.05
2017-11-03T19:53:20.778Z,34.45
2017-11-03T19:55:48.249Z,20.88
2017-11-03T19:58:15.804Z,25.30
2017-11-03T20:00:43.357Z,29.00
2017-11-03T20:03:10.842Z,21.33
2017-11-03T20:05:39.072Z,19.98
2017-11-03T20:08:06.669Z,26.10
2017-11-03T20:10:34.947Z,25.55
2017-11-03T20:13:03.283Z,27.30
2017-11-03T20:15:30.853Z,24.52
2017-11-03T20:17:58.439Z,21.77
2017-11-03T20:20:27.107Z,24.33
2017-11-03T20:22:55.718Z,27.95
2017-11-03T20:25:23.418Z,30.85
2017-11-03T20:27:51.294Z,27.13
2017-11-03T20:30:19.056Z,27.58
2017-11-03T20:32:46.815Z,34.08
2017-11-03T20:35:15.015Z,25.33
2017-11-03T20:37:42.914Z,29.40
2017-11-03T20:40:11.653Z,27.70
2017-11-03T20:42:39.500Z,29.35
2017-11-03T20:45:07.591Z,22.70
2017-11-03T20:47:36.040Z,28.98
2017-11-03T20:50:04.161Z,25.40
2017-11-03T20:52:31.770Z,24.80
2017-11-03T20:54:59.365Z,25.98
2017-11-03T20:57:26.844Z,23.87
2017-11-03T20:59:54.736Z,24.87
2017-11-03T21:02:23.191Z,25.10
2017-11-03T21:04:50.908Z,23.83
2017-11-03T21:07:18.501Z,28.95
2017-11-03T21:09:47.553Z,30.12
2017-11-03T21:12:15.082Z,32.60
2017-11-03T21:14:43.374Z,23.45
2017-11-03T21:17:11.154Z,23.30
2017-11-03T21:19:39.120Z,34.85
2017-11-03T21:22:06.754Z,24.58
2017-11-03T21:24:34.664Z,45.20
2017-11-03T21:27:03.627Z,28.58
2017-11-03T21:29:31.522Z,28.00
2017-11-03T21:32:00.193Z,30.90
2017-11-03T21:34:27.749Z,35.38
2017-11-03T21:36:55.226Z,25.67
2017-11-03T21:39:22.716Z,30.60
2017-11-03T21:41:50.274Z,35.22
2017-11-03T21:44:17.732Z,38.65
2017-11-03T21:46:45.245Z,30.60
2017-11-03T21:49:12.714Z,36.47
2017-11-03T21:51:40.166Z,30.52
2017-11-03T21:54:07.658Z,29.98
2017-11-03T21:56:35.117Z,32.03
2017-11-03T21:59:03.445Z,39.00
2017-11-03T22:01:30.950Z,31.75
2017-11-03T22:03:58.438Z,27.98
2017-11-03T22:06:26.066Z,32.30
2017-11-03T22:08:53.541Z,30.77
2017-11-03T22:11:21.849Z,32.80
2017-11-03T22:13:49.366Z,31.45
2017-11-03T22:16:16.817Z,31.77
2017-11-03T22:18:45.067Z,30.48
2017-11-03T22:21:12.528Z,40.65
2017-11-03T22:23:40.135Z,39.03
2017-11-03T22:26:07.614Z,31.33
2017-11-03T22:28:35.126Z,34.45
2017-11-03T22:31:02.611Z,34.13
2017-11-03T22:33:30.113Z,32.40
2017-11-03T22:35:57.589Z,38.40
2017-11-03T22:38:25.133Z,36.63
2017-11-03T22:40:52.709Z,30.92
2017-11-03T22:43:20.267Z,36.55
2017-11-03T22:45:47.734Z,35.45
2017-11-03T22:48:16.925Z,34.70
2017-11-03T22:50:44.428Z,36.72
2017-11-03T22:53:11.888Z,32.92
2017-11-03T22:55:39.358Z,34.63
2017-11-03T22:58:06.857Z,30.62
2017-11-03T23:00:34.344Z,30.73
2017-11-03T23:03:01.871Z,34.85
2017-11-03T23:05:29.440Z,35.55
2017-11-03T23:07:57.674Z,39.58
2017-11-03T23:10:25.140Z,32.00
2017-11-03T23:12:52.612Z,36.25
2017-11-03T23:15:20.119Z,36.05
2017-11-03T23:17:47.585Z,32.08
2017-11-03T23:20:15.054Z,31.60
2017-11-03T23:22:42.518Z,35.55
2017-11-03T23:25:09.995Z,33.45
2017-11-03T23:27:37.510Z,33.40
2017-11-03T23:30:04.996Z,35.33
2017-11-03T23:32:32.485Z,30.27
2017-11-03T23:35:00.715Z,32.97
2017-11-03T23:37:28.182Z,31.45
2017-11-03T23:39:55.774Z,34.10
2017-11-03T23:42:24.015Z,30.85
2017-11-03T23:44:51.471Z,35.03
2017-11-03T23:47:18.945Z,27.95
2017-11-03T23:49:46.417Z,36.75
2017-11-03T23:52:14.691Z,39.25
2017-11-03T23:54:42.924Z,26.62
2017-11-03T23:57:10.391Z,32.63
2017-11-03T23:59:37.873Z,31.35
